sensor_id;sensor_type;location;lat;lon;timestamp;pressure;altitude;pressure_sealevel;temperature;humidity
43364;BME280;40636;52.424;-1.948;2023-07-08T00:01:20;99592.13;;;19.19;100.00
43364;BME280;40636;52.424;-1.948;2023-07-08T00:03:47;99586.69;;;19.14;100.00
43364;BME280;40636;52.424;-1.948;2023-07-08T00:06:20;99594.22;;;19.14;100.00
43364;BME280;40636;52.424;-1.948;2023-07-08T00:08:48;99594.34;;;19.09;100.00
43364;BME280;40636;52.424;-1.948;2023-07-08T00:11:16;99586.16;;;19.04;100.00
43364;BME280;40636;52.424;-1.948;2023-07-08T00:14:01;99580.88;;;19.02;100.00
43364;BME280;40636;52.424;-1.948;2023-07-08T00:16:34;99584.31;;;18.99;100.00
43364;BME280;40636;52.424;-1.948;2023-07-08T00:19:01;99582.97;;;18.96;100.00
43364;BME280;40636;52.424;-1.948;2023-07-08T00:21:28;99575.25;;;18.93;100.00
43364;BME280;40636;52.424;-1.948;2023-07-08T00:23:55;99573.94;;;18.91;100.00
43364;BME280;40636;52.424;-1.948;2023-07-08T00:26:26;99570.94;;;18.87;100.00
43364;BME280;40636;52.424;-1.948;2023-07-08T00:28:54;99575.19;;;18.85;100.00
43364;BME280;40636;52.424;-1.948;2023-07-08T00:31:23;99579.63;;;18.86;100.00
43364;BME280;40636;52.424;-1.948;2023-07-08T00:33:54;99566.53;;;18.86;100.00
43364;BME280;40636;52.424;-1.948;2023-07-08T00:36:25;99567.47;;;18.82;100.00
43364;BME280;40636;52.424;-1.948;2023-07-08T00:38:53;99566.47;;;18.78;100.00
43364;BME280;40636;52.424;-1.948;2023-07-08T00:41:27;99563.81;;;18.72;100.00
43364;BME280;40636;52.424;-1.948;2023-07-08T00:44:14;99558.34;;;18.67;100.00
43364;BME280;40636;52.424;-1.948;2023-07-08T00:46:49;99560.31;;;18.67;100.00
43364;BME280;40636;52.424;-1.948;2023-07-08T00:51:49;99560.59;;;18.65;100.00
43364;BME280;40636;52.424;-1.948;2023-07-08T00:54:19;99547.75;;;18.69;100.00
43364;BME280;40636;52.424;-1.948;2023-07-08T00:56:50;99541.13;;;18.65;100.00
43364;BME280;40636;52.424;-1.948;2023-07-08T00:59:26;99541.97;;;18.66;100.00
43364;BME280;40636;52.424;-1.948;2023-07-08T01:01:58;99540.13;;;18.61;100.00
43364;BME280;40636;52.424;-1.948;2023-07-08T01:04:37;99547.03;;;18.64;100.00
43364;BME280;40636;52.424;-1.948;2023-07-08T01:07:09;99537.34;;;18.61;100.00
43364;BME280;40636;52.424;-1.948;2023-07-08T01:12:41;99536.66;;;18.56;100.00
43364;BME280;40636;52.424;-1.948;2023-07-08T01:15:10;99538.28;;;18.57;100.00
43364;BME280;40636;52.424;-1.948;2023-07-08T01:17:37;99536.31;;;18.57;100.00
43364;BME280;40636;52.424;-1.948;2023-07-08T01:20:05;99533.38;;;18.54;100.00
43364;BME280;40636;52.424;-1.948;2023-07-08T01:22:36;99535.94;;;18.50;100.00
43364;BME280;40636;52.424;-1.948;2023-07-08T01:25:04;99528.94;;;18.52;100.00
43364;BME280;40636;52.424;-1.948;2023-07-08T01:27:34;99531.53;;;18.49;100.00
43364;BME280;40636;52.424;-1.948;2023-07-08T01:30:04;99528.03;;;18.43;100.00
43364;BME280;40636;52.424;-1.948;2023-07-08T01:32:33;99529.50;;;18.41;100.00
43364;BME280;40636;52.424;-1.948;2023-07-08T01:35:01;99533.81;;;18.33;100.00
43364;BME280;40636;52.424;-1.948;2023-07-08T01:37:41;99526.50;;;18.37;100.00
43364;BME280;40636;52.424;-1.948;2023-07-08T01:42:57;99522.50;;;18.30;100.00
43364;BME280;40636;52.424;-1.948;2023-07-08T01:45:28;99507.09;;;18.23;100.00
43364;BME280;40636;52.424;-1.948;2023-07-08T01:48:04;99510.00;;;18.18;100.00
43364;BME280;40636;52.424;-1.948;2023-07-08T01:50:35;99503.63;;;18.18;100.00
43364;BME280;40636;52.424;-1.948;2023-07-08T01:53:10;99503.41;;;18.14;100.00
43364;BME280;40636;52.424;-1.948;2023-07-08T01:55:37;99500.44;;;18.11;100.00
43364;BME280;40636;52.424;-1.948;2023-07-08T01:58:04;99500.56;;;18.06;100.00
43364;BME280;40636;52.424;-1.948;2023-07-08T02:00:31;99490.25;;;18.06;100.00
43364;BME280;40636;52.424;-1.948;2023-07-08T02:02:58;99498.31;;;18.08;100.00
43364;BME280;40636;52.424;-1.948;2023-07-08T02:05:25;99503.66;;;18.04;100.00
43364;BME280;40636;52.424;-1.948;2023-07-08T02:07:52;99490.38;;;18.01;100.00
43364;BME280;40636;52.424;-1.948;2023-07-08T02:10:19;99493.16;;;18.01;100.00
43364;BME280;40636;52.424;-1.948;2023-07-08T02:12:55;99488.41;;;18.02;100.00
43364;BME280;40636;52.424;-1.948;2023-07-08T02:15:31;99484.94;;;17.96;100.00
43364;BME280;40636;52.424;-1.948;2023-07-08T02:17:58;99489.69;;;17.95;100.00
43364;BME280;40636;52.424;-1.948;2023-07-08T02:20:25;99489.97;;;17.94;100.00
43364;BME280;40636;52.424;-1.948;2023-07-08T02:22:52;99484.25;;;17.90;100.00
43364;BME280;40636;52.424;-1.948;2023-07-08T02:25:19;99488.66;;;17.91;100.00
43364;BME280;40636;52.424;-1.948;2023-07-08T02:27:46;99493.50;;;17.86;100.00
43364;BME280;40636;52.424;-1.948;2023-07-08T02:30:13;99487.13;;;17.85;100.00
43364;BME280;40636;52.424;-1.948;2023-07-08T02:32:40;99478.88;;;17.80;100.00
43364;BME280;40636;52.424;-1.948;2023-07-08T02:35:08;99480.34;;;17.78;100.00
43364;BME280;40636;52.424;-1.948;2023-07-08T02:37:35;99487.63;;;17.73;100.00
43364;BME280;40636;52.424;-1.948;2023-07-08T02:40:02;99486.59;;;17.69;100.00
43364;BME280;40636;52.424;-1.948;2023-07-08T02:42:29;99479.81;;;17.75;100.00
43364;BME280;40636;52.424;-1.948;2023-07-08T02:44:56;99482.28;;;17.77;100.00
43364;BME280;40636;52.424;-1.948;2023-07-08T02:47:23;99480.41;;;17.72;100.00
43364;BME280;40636;52.424;-1.948;2023-07-08T02:49:50;99474.06;;;17.72;100.00
43364;BME280;40636;52.424;-1.948;2023-07-08T02:52:17;99471.00;;;17.73;100.00
43364;BME280;40636;52.424;-1.948;2023-07-08T02:54:44;99476.63;;;17.68;100.00
43364;BME280;40636;52.424;-1.948;2023-07-08T02:57:10;99477.13;;;17.70;100.00
43364;BME280;40636;52.424;-1.948;2023-07-08T02:59:37;99466.25;;;17.74;100.00
43364;BME280;40636;52.424;-1.948;2023-07-08T03:02:05;99463.38;;;17.79;100.00
43364;BME280;40636;52.424;-1.948;2023-07-08T03:04:35;99465.53;;;17.82;100.00
43364;BME280;40636;52.424;-1.948;2023-07-08T03:07:14;99462.31;;;17.89;100.00
43364;BME280;40636;52.424;-1.948;2023-07-08T03:09:41;99466.66;;;17.95;100.00
43364;BME280;40636;52.424;-1.948;2023-07-08T03:12:43;99447.91;;;18.00;100.00
43364;BME280;40636;52.424;-1.948;2023-07-08T03:16:17;99461.19;;;18.04;100.00
43364;BME280;40636;52.424;-1.948;2023-07-08T03:18:44;99455.31;;;18.05;100.00
43364;BME280;40636;52.424;-1.948;2023-07-08T03:21:16;99449.63;;;18.10;100.00
43364;BME280;40636;52.424;-1.948;2023-07-08T03:23:43;99448.69;;;18.15;100.00
43364;BME280;40636;52.424;-1.948;2023-07-08T03:26:19;99440.56;;;18.18;100.00
43364;BME280;40636;52.424;-1.948;2023-07-08T03:28:47;99440.88;;;18.17;100.00
43364;BME280;40636;52.424;-1.948;2023-07-08T03:31:14;99460.63;;;18.15;100.00
43364;BME280;40636;52.424;-1.948;2023-07-08T03:33:41;99457.34;;;18.13;100.00
43364;BME280;40636;52.424;-1.948;2023-07-08T03:36:14;99460.41;;;18.12;100.00
43364;BME280;40636;52.424;-1.948;2023-07-08T03:38:56;99460.25;;;18.08;100.00
43364;BME280;40636;52.424;-1.948;2023-07-08T03:41:24;99474.44;;;18.07;100.00
43364;BME280;40636;52.424;-1.948;2023-07-08T03:43:51;99478.00;;;18.07;100.00
43364;BME280;40636;52.424;-1.948;2023-07-08T03:46:19;99473.19;;;18.13;100.00
43364;BME280;40636;52.424;-1.948;2023-07-08T03:48:48;99470.72;;;18.11;100.00
43364;BME280;40636;52.424;-1.948;2023-07-08T03:51:27;99481.00;;;18.11;100.00
43364;BME280;40636;52.424;-1.948;2023-07-08T03:53:55;99480.72;;;18.12;100.00
43364;BME280;40636;52.424;-1.948;2023-07-08T03:56:22;99469.91;;;18.11;100.00
43364;BME280;40636;52.424;-1.948;2023-07-08T03:58:50;99471.03;;;18.10;100.00
43364;BME280;40636;52.424;-1.948;2023-07-08T04:01:22;99476.91;;;18.08;100.00
43364;BME280;40636;52.424;-1.948;2023-07-08T04:03:52;99484.22;;;18.04;100.00
43364;BME280;40636;52.424;-1.948;2023-07-08T04:06:19;99468.78;;;17.98;100.00
43364;BME280;40636;52.424;-1.948;2023-07-08T04:08:46;99464.50;;;17.92;100.00
43364;BME280;40636;52.424;-1.948;2023-07-08T04:11:18;99470.84;;;17.92;100.00
43364;BME280;40636;52.424;-1.948;2023-07-08T04:13:46;99471.47;;;17.89;100.00
43364;BME280;40636;52.424;-1.948;2023-07-08T04:16:22;99472.59;;;17.88;100.00
43364;BME280;40636;52.424;-1.948;2023-07-08T04:18:50;99465.75;;;17.86;100.00
43364;BME280;40636;52.424;-1.948;2023-07-08T04:21:20;99462.44;;;17.84;100.00
43364;BME280;40636;52.424;-1.948;2023-07-08T04:23:48;99464.72;;;17.82;100.00
43364;BME280;40636;52.424;-1.948;2023-07-08T04:26:16;99468.63;;;17.81;100.00
43364;BME280;40636;52.424;-1.948;2023-07-08T04:28:42;99474.19;;;17.81;100.00
43364;BME280;40636;52.424;-1.948;2023-07-08T04:31:09;99470.75;;;17.84;100.00
43364;BME280;40636;52.424;-1.948;2023-07-08T04:33:36;99474.06;;;17.86;100.00
43364;BME280;40636;52.424;-1.948;2023-07-08T04:36:04;99474.06;;;17.86;100.00
43364;BME280;40636;52.424;-1.948;2023-07-08T04:38:31;99482.91;;;17.88;100.00
43364;BME280;40636;52.424;-1.948;2023-07-08T04:41:01;99473.75;;;17.87;100.00
43364;BME280;40636;52.424;-1.948;2023-07-08T04:43:28;99477.34;;;17.88;100.00
43364;BME280;40636;52.424;-1.948;2023-07-08T04:45:56;99475.59;;;17.92;100.00
43364;BME280;40636;52.424;-1.948;2023-07-08T04:48:23;99481.63;;;17.94;100.00
43364;BME280;40636;52.424;-1.948;2023-07-08T04:50:52;99489.34;;;17.97;100.00
43364;BME280;40636;52.424;-1.948;2023-07-08T04:53:20;99499.03;;;17.99;100.00
43364;BME280;40636;52.424;-1.948;2023-07-08T04:55:51;99497.06;;;18.00;100.00
43364;BME280;40636;52.424;-1.948;2023-07-08T04:58:19;99497.28;;;18.04;100.00
43364;BME280;40636;52.424;-1.948;2023-07-08T05:00:47;99504.84;;;18.12;100.00
43364;BME280;40636;52.424;-1.948;2023-07-08T05:03:13;99513.09;;;18.17;100.00
43364;BME280;40636;52.424;-1.948;2023-07-08T05:05:46;99514.94;;;18.21;100.00
43364;BME280;40636;52.424;-1.948;2023-07-08T05:08:13;99519.72;;;18.30;100.00
43364;BME280;40636;52.424;-1.948;2023-07-08T05:10:40;99528.78;;;18.35;100.00
43364;BME280;40636;52.424;-1.948;2023-07-08T05:13:09;99530.31;;;18.41;100.00
43364;BME280;40636;52.424;-1.948;2023-07-08T05:15:36;99534.81;;;18.51;100.00
43364;BME280;40636;52.424;-1.948;2023-07-08T05:18:03;99540.66;;;18.63;100.00
43364;BME280;40636;52.424;-1.948;2023-07-08T05:20:31;99534.53;;;18.75;100.00
43364;BME280;40636;52.424;-1.948;2023-07-08T05:23:01;99543.78;;;18.84;100.00
43364;BME280;40636;52.424;-1.948;2023-07-08T05:25:31;99549.09;;;18.94;100.00
43364;BME280;40636;52.424;-1.948;2023-07-08T05:27:58;99548.66;;;19.01;100.00
43364;BME280;40636;52.424;-1.948;2023-07-08T05:30:25;99555.72;;;19.07;100.00
43364;BME280;40636;52.424;-1.948;2023-07-08T05:32:53;99562.69;;;19.18;100.00
43364;BME280;40636;52.424;-1.948;2023-07-08T05:35:19;99558.19;;;19.31;100.00
43364;BME280;40636;52.424;-1.948;2023-07-08T05:37:46;99553.34;;;19.45;100.00
43364;BME280;40636;52.424;-1.948;2023-07-08T05:40:13;99546.56;;;19.60;100.00
43364;BME280;40636;52.424;-1.948;2023-07-08T05:42:59;99551.53;;;19.72;100.00
43364;BME280;40636;52.424;-1.948;2023-07-08T05:49:53;99540.63;;;19.93;100.00
43364;BME280;40636;52.424;-1.948;2023-07-08T05:52:20;99549.19;;;20.05;100.00
43364;BME280;40636;52.424;-1.948;2023-07-08T05:54:47;99544.81;;;20.21;100.00
43364;BME280;40636;52.424;-1.948;2023-07-08T05:57:14;99548.28;;;20.36;100.00
43364;BME280;40636;52.424;-1.948;2023-07-08T05:59:43;99554.22;;;20.51;100.00
43364;BME280;40636;52.424;-1.948;2023-07-08T06:02:21;99554.88;;;20.66;100.00
43364;BME280;40636;52.424;-1.948;2023-07-08T06:04:49;99546.53;;;20.83;100.00
43364;BME280;40636;52.424;-1.948;2023-07-08T06:07:16;99546.34;;;20.97;100.00
43364;BME280;40636;52.424;-1.948;2023-07-08T06:09:46;99543.53;;;21.14;100.00
43364;BME280;40636;52.424;-1.948;2023-07-08T06:12:53;99550.09;;;21.27;100.00
43364;BME280;40636;52.424;-1.948;2023-07-08T06:15:19;99557.16;;;21.33;100.00
43364;BME280;40636;52.424;-1.948;2023-07-08T06:17:48;99550.41;;;21.43;100.00
43364;BME280;40636;52.424;-1.948;2023-07-08T06:20:23;99550.09;;;21.44;100.00
43364;BME280;40636;52.424;-1.948;2023-07-08T06:22:49;99557.66;;;21.44;100.00
43364;BME280;40636;52.424;-1.948;2023-07-08T06:25:19;99559.59;;;21.43;100.00
43364;BME280;40636;52.424;-1.948;2023-07-08T06:27:46;99558.13;;;21.46;100.00
43364;BME280;40636;52.424;-1.948;2023-07-08T06:30:13;99554.00;;;21.43;100.00
43364;BME280;40636;52.424;-1.948;2023-07-08T06:32:40;99570.63;;;21.40;100.00
43364;BME280;40636;52.424;-1.948;2023-07-08T06:35:25;99567.00;;;21.31;100.00
43364;BME280;40636;52.424;-1.948;2023-07-08T06:38:30;99563.69;;;21.28;100.00
43364;BME280;40636;52.424;-1.948;2023-07-08T06:40:58;99565.34;;;21.29;100.00
43364;BME280;40636;52.424;-1.948;2023-07-08T06:43:32;99572.91;;;21.20;100.00
43364;BME280;40636;52.424;-1.948;2023-07-08T06:45:58;99573.75;;;21.12;100.00
43364;BME280;40636;52.424;-1.948;2023-07-08T06:48:25;99585.41;;;21.32;100.00
43364;BME280;40636;52.424;-1.948;2023-07-08T06:50:52;99597.53;;;21.53;100.00
43364;BME280;40636;52.424;-1.948;2023-07-08T06:53:19;99592.34;;;21.81;100.00
43364;BME280;40636;52.424;-1.948;2023-07-08T06:55:46;99593.88;;;22.08;100.00
43364;BME280;40636;52.424;-1.948;2023-07-08T06:58:13;99590.34;;;22.28;100.00
43364;BME280;40636;52.424;-1.948;2023-07-08T07:00:44;99592.63;;;22.35;100.00
43364;BME280;40636;52.424;-1.948;2023-07-08T07:03:12;99589.47;;;22.37;100.00
43364;BME280;40636;52.424;-1.948;2023-07-08T07:05:39;99582.44;;;22.31;100.00
43364;BME280;40636;52.424;-1.948;2023-07-08T07:08:06;99579.91;;;22.38;100.00
43364;BME280;40636;52.424;-1.948;2023-07-08T07:10:34;99595.97;;;22.49;100.00
43364;BME280;40636;52.424;-1.948;2023-07-08T07:13:03;99589.25;;;22.71;100.00
43364;BME280;40636;52.424;-1.948;2023-07-08T07:15:29;99587.97;;;22.90;100.00
43364;BME280;40636;52.424;-1.948;2023-07-08T07:17:57;99596.50;;;22.93;100.00
43364;BME280;40636;52.424;-1.948;2023-07-08T07:20:24;99585.38;;;22.85;100.00
43364;BME280;40636;52.424;-1.948;2023-07-08T07:22:52;99583.84;;;22.87;100.00
43364;BME280;40636;52.424;-1.948;2023-07-08T07:25:19;99574.84;;;22.82;100.00
43364;BME280;40636;52.424;-1.948;2023-07-08T07:27:46;99589.03;;;22.76;100.00
43364;BME280;40636;52.424;-1.948;2023-07-08T07:30:14;99585.59;;;22.71;100.00
43364;BME280;40636;52.424;-1.948;2023-07-08T07:32:42;99583.00;;;22.66;100.00
43364;BME280;40636;52.424;-1.948;2023-07-08T07:35:10;99597.19;;;22.61;100.00
43364;BME280;40636;52.424;-1.948;2023-07-08T07:37:42;99594.75;;;22.59;100.00
43364;BME280;40636;52.424;-1.948;2023-07-08T07:40:11;99598.91;;;22.53;100.00
43364;BME280;40636;52.424;-1.948;2023-07-08T07:42:40;99614.69;;;22.58;100.00
43364;BME280;40636;52.424;-1.948;2023-07-08T07:45:08;99612.19;;;22.56;100.00
43364;BME280;40636;52.424;-1.948;2023-07-08T07:47:35;99614.81;;;22.61;100.00
43364;BME280;40636;52.424;-1.948;2023-07-08T07:50:04;99623.13;;;22.70;100.00
43364;BME280;40636;52.424;-1.948;2023-07-08T07:52:30;99632.44;;;22.83;100.00
43364;BME280;40636;52.424;-1.948;2023-07-08T07:54:57;99643.03;;;22.98;100.00
43364;BME280;40636;52.424;-1.948;2023-07-08T07:57:24;99646.41;;;23.12;100.00
43364;BME280;40636;52.424;-1.948;2023-07-08T07:59:51;99647.25;;;23.25;100.00
43364;BME280;40636;52.424;-1.948;2023-07-08T08:02:19;99654.16;;;23.27;100.00
43364;BME280;40636;52.424;-1.948;2023-07-08T08:04:46;99661.72;;;23.48;100.00
43364;BME280;40636;52.424;-1.948;2023-07-08T08:07:13;99654.69;;;23.42;100.00
43364;BME280;40636;52.424;-1.948;2023-07-08T08:09:39;99651.75;;;23.38;100.00
43364;BME280;40636;52.424;-1.948;2023-07-08T08:12:08;99653.22;;;23.23;100.00
43364;BME280;40636;52.424;-1.948;2023-07-08T08:14:36;99656.75;;;23.12;100.00
43364;BME280;40636;52.424;-1.948;2023-07-08T08:17:03;99671.31;;;23.05;100.00
43364;BME280;40636;52.424;-1.948;2023-07-08T08:19:31;99673.78;;;23.27;100.00
43364;BME280;40636;52.424;-1.948;2023-07-08T08:21:58;99677.38;;;23.49;100.00
43364;BME280;40636;52.424;-1.948;2023-07-08T08:24:25;99676.00;;;23.55;100.00
43364;BME280;40636;52.424;-1.948;2023-07-08T08:26:53;99681.34;;;23.69;100.00
43364;BME280;40636;52.424;-1.948;2023-07-08T08:29:20;99676.00;;;23.76;100.00
43364;BME280;40636;52.424;-1.948;2023-07-08T08:31:47;99677.88;;;23.84;100.00
43364;BME280;40636;52.424;-1.948;2023-07-08T08:34:14;99685.50;;;23.96;100.00
43364;BME280;40636;52.424;-1.948;2023-07-08T08:36:41;99691.38;;;24.03;100.00
43364;BME280;40636;52.424;-1.948;2023-07-08T08:39:09;99674.75;;;23.98;100.00
43364;BME280;40636;52.424;-1.948;2023-07-08T08:41:38;99677.75;;;23.81;100.00
43364;BME280;40636;52.424;-1.948;2023-07-08T08:44:12;99685.44;;;23.71;100.00
43364;BME280;40636;52.424;-1.948;2023-07-08T08:46:49;99684.31;;;23.64;100.00
43364;BME280;40636;52.424;-1.948;2023-07-08T08:49:26;99684.50;;;23.67;100.00
43364;BME280;40636;52.424;-1.948;2023-07-08T08:51:58;99687.75;;;23.69;100.00
43364;BME280;40636;52.424;-1.948;2023-07-08T08:54:25;99696.75;;;23.75;100.00
43364;BME280;40636;52.424;-1.948;2023-07-08T08:59:31;99714.34;;;23.96;100.00
43364;BME280;40636;52.424;-1.948;2023-07-08T09:02:01;99708.28;;;24.07;100.00
43364;BME280;40636;52.424;-1.948;2023-07-08T09:04:41;99710.38;;;23.97;100.00
43364;BME280;40636;52.424;-1.948;2023-07-08T09:07:13;99708.66;;;24.05;100.00
43364;BME280;40636;52.424;-1.948;2023-07-08T09:12:16;99721.34;;;23.90;100.00
43364;BME280;40636;52.424;-1.948;2023-07-08T09:14:45;99719.34;;;23.91;100.00
43364;BME280;40636;52.424;-1.948;2023-07-08T09:17:27;99725.41;;;23.93;100.00
43364;BME280;40636;52.424;-1.948;2023-07-08T09:20:23;99718.50;;;23.78;100.00
43364;BME280;40636;52.424;-1.948;2023-07-08T09:23:36;99713.25;;;23.76;100.00
43364;BME280;40636;52.424;-1.948;2023-07-08T09:28:14;99728.19;;;23.81;100.00
43364;BME280;40636;52.424;-1.948;2023-07-08T09:30:47;99732.88;;;23.89;100.00
43364;BME280;40636;52.424;-1.948;2023-07-08T09:33:14;99728.19;;;23.81;100.00
43364;BME280;40636;52.424;-1.948;2023-07-08T09:35:43;99743.84;;;23.82;100.00
43364;BME280;40636;52.424;-1.948;2023-07-08T09:38:21;99748.72;;;23.72;100.00
43364;BME280;40636;52.424;-1.948;2023-07-08T09:40:51;99753.53;;;23.63;100.00
43364;BME280;40636;52.424;-1.948;2023-07-08T09:43:37;99753.75;;;23.37;100.00
43364;BME280;40636;52.424;-1.948;2023-07-08T09:46:05;99762.88;;;23.04;100.00
43364;BME280;40636;52.424;-1.948;2023-07-08T09:48:37;99761.09;;;23.00;100.00
43364;BME280;40636;52.424;-1.948;2023-07-08T09:51:04;99778.97;;;22.69;100.00
43364;BME280;40636;52.424;-1.948;2023-07-08T09:53:33;99763.22;;;22.56;100.00
43364;BME280;40636;52.424;-1.948;2023-07-08T09:56:03;99751.81;;;22.32;100.00
43364;BME280;40636;52.424;-1.948;2023-07-08T09:58:36;99717.50;;;22.14;100.00
43364;BME280;40636;52.424;-1.948;2023-07-08T10:01:13;99714.75;;;21.70;100.00
43364;BME280;40636;52.424;-1.948;2023-07-08T10:03:42;99728.75;;;21.36;100.00
43364;BME280;40636;52.424;-1.948;2023-07-08T10:06:25;99754.47;;;21.15;100.00
43364;BME280;40636;52.424;-1.948;2023-07-08T10:09:00;99765.09;;;20.96;100.00
43364;BME280;40636;52.424;-1.948;2023-07-08T10:11:30;99760.81;;;20.81;100.00
43364;BME280;40636;52.424;-1.948;2023-07-08T10:14:08;99740.44;;;20.72;100.00
43364;BME280;40636;52.424;-1.948;2023-07-08T10:16:40;99731.53;;;20.61;100.00
43364;BME280;40636;52.424;-1.948;2023-07-08T10:19:14;99728.06;;;20.56;100.00
43364;BME280;40636;52.424;-1.948;2023-07-08T10:35:31;99760.94;;;20.67;100.00
43364;BME280;40636;52.424;-1.948;2023-07-08T10:41:08;99781.72;;;20.61;100.00
43364;BME280;40636;52.424;-1.948;2023-07-08T10:46:38;99793.97;;;20.51;100.00
43364;BME280;40636;52.424;-1.948;2023-07-08T10:57:43;99799.34;;;20.17;100.00
43364;BME280;40636;52.424;-1.948;2023-07-08T11:13:18;99800.47;;;20.47;100.00
43364;BME280;40636;52.424;-1.948;2023-07-08T11:15:52;99801.97;;;20.44;100.00
43364;BME280;40636;52.424;-1.948;2023-07-08T11:18:33;99794.97;;;20.56;100.00
43364;BME280;40636;52.424;-1.948;2023-07-08T11:21:14;99785.81;;;20.55;100.00
43364;BME280;40636;52.424;-1.948;2023-07-08T11:23:50;99776.50;;;20.68;100.00
43364;BME280;40636;52.424;-1.948;2023-07-08T11:29:18;99800.06;;;21.02;100.00
43364;BME280;40636;52.424;-1.948;2023-07-08T11:31:47;99811.84;;;21.47;100.00
43364;BME280;40636;52.424;-1.948;2023-07-08T11:34:17;99803.16;;;21.84;100.00
43364;BME280;40636;52.424;-1.948;2023-07-08T11:36:46;99804.13;;;22.05;100.00
43364;BME280;40636;52.424;-1.948;2023-07-08T11:39:33;99799.84;;;22.16;100.00
43364;BME280;40636;52.424;-1.948;2023-07-08T11:42:11;99817.63;;;22.20;100.00
43364;BME280;40636;52.424;-1.948;2023-07-08T11:44:47;99825.97;;;22.29;100.00
43364;BME280;40636;52.424;-1.948;2023-07-08T11:47:26;99820.91;;;22.31;100.00
43364;BME280;40636;52.424;-1.948;2023-07-08T11:49:58;99824.69;;;22.26;100.00
43364;BME280;40636;52.424;-1.948;2023-07-08T11:52:25;99834.72;;;22.19;100.00
43364;BME280;40636;52.424;-1.948;2023-07-08T11:54:59;99837.53;;;22.19;100.00
43364;BME280;40636;52.424;-1.948;2023-07-08T11:57:38;99841.13;;;22.19;100.00
43364;BME280;40636;52.424;-1.948;2023-07-08T12:00:14;99843.63;;;22.12;100.00
43364;BME280;40636;52.424;-1.948;2023-07-08T12:02:56;99844.72;;;22.11;100.00
43364;BME280;40636;52.424;-1.948;2023-07-08T12:05:37;99836.84;;;21.87;100.00
43364;BME280;40636;52.424;-1.948;2023-07-08T12:08:15;99841.13;;;21.76;100.00
43364;BME280;40636;52.424;-1.948;2023-07-08T12:10:51;99836.84;;;21.61;100.00
43364;BME280;40636;52.424;-1.948;2023-07-08T12:13:22;99839.16;;;21.59;100.00
43364;BME280;40636;52.424;-1.948;2023-07-08T12:15:49;99835.00;;;21.48;100.00
43364;BME280;40636;52.424;-1.948;2023-07-08T12:18:21;99851.91;;;21.34;100.00
43364;BME280;40636;52.424;-1.948;2023-07-08T12:20:52;99853.50;;;21.26;100.00
43364;BME280;40636;52.424;-1.948;2023-07-08T12:23:22;99852.19;;;21.24;100.00
43364;BME280;40636;52.424;-1.948;2023-07-08T12:25:50;99854.88;;;20.98;100.00
43364;BME280;40636;52.424;-1.948;2023-07-08T12:28:19;99852.41;;;20.96;100.00
43364;BME280;40636;52.424;-1.948;2023-07-08T12:30:47;99856.31;;;20.87;100.00
43364;BME280;40636;52.424;-1.948;2023-07-08T12:33:34;99859.47;;;20.94;100.00
43364;BME280;40636;52.424;-1.948;2023-07-08T12:36:03;99853.22;;;20.97;100.00
43364;BME280;40636;52.424;-1.948;2023-07-08T12:38:39;99847.16;;;20.95;100.00
43364;BME280;40636;52.424;-1.948;2023-07-08T12:41:11;99840.59;;;20.91;100.00
43364;BME280;40636;52.424;-1.948;2023-07-08T12:43:38;99838.28;;;20.93;100.00
43364;BME280;40636;52.424;-1.948;2023-07-08T12:46:05;99836.50;;;20.97;100.00
43364;BME280;40636;52.424;-1.948;2023-07-08T12:48:35;99848.88;;;21.13;100.00
43364;BME280;40636;52.424;-1.948;2023-07-08T12:51:04;99845.66;;;21.37;100.00
43364;BME280;40636;52.424;-1.948;2023-07-08T12:53:31;99841.94;;;21.59;100.00
43364;BME280;40636;52.424;-1.948;2023-07-08T12:56:00;99846.03;;;21.79;100.00
43364;BME280;40636;52.424;-1.948;2023-07-08T12:58:30;99844.75;;;21.85;100.00
43364;BME280;40636;52.424;-1.948;2023-07-08T13:01:01;99836.38;;;21.94;100.00
43364;BME280;40636;52.424;-1.948;2023-07-08T13:03:41;99848.03;;;21.87;100.00
43364;BME280;40636;52.424;-1.948;2023-07-08T13:06:12;99853.97;;;21.86;100.00
43364;BME280;40636;52.424;-1.948;2023-07-08T13:08:42;99855.91;;;21.76;100.00
43364;BME280;40636;52.424;-1.948;2023-07-08T13:11:13;99850.50;;;21.71;100.00
43364;BME280;40636;52.424;-1.948;2023-07-08T13:13:58;99845.72;;;21.72;100.00
43364;BME280;40636;52.424;-1.948;2023-07-08T13:16:33;99844.75;;;21.68;100.00
43364;BME280;40636;52.424;-1.948;2023-07-08T13:19:04;99851.94;;;21.60;100.00
43364;BME280;40636;52.424;-1.948;2023-07-08T13:21:32;99848.31;;;21.51;100.00
43364;BME280;40636;52.424;-1.948;2023-07-08T13:24:01;99842.75;;;21.51;100.00
43364;BME280;40636;52.424;-1.948;2023-07-08T13:26:30;99856.28;;;21.26;100.00
43364;BME280;40636;52.424;-1.948;2023-07-08T13:29:25;99862.66;;;21.18;100.00
43364;BME280;40636;52.424;-1.948;2023-07-08T13:31:56;99861.81;;;21.09;100.00
43364;BME280;40636;52.424;-1.948;2023-07-08T13:34:25;99866.09;;;21.15;100.00
43364;BME280;40636;52.424;-1.948;2023-07-08T13:36:54;99881.88;;;21.20;100.00
43364;BME280;40636;52.424;-1.948;2023-07-08T13:39:27;99886.16;;;21.17;100.00
43364;BME280;40636;52.424;-1.948;2023-07-08T13:42:00;99895.00;;;21.19;100.00
43364;BME280;40636;52.424;-1.948;2023-07-08T13:44:30;99881.09;;;21.28;100.00
43364;BME280;40636;52.424;-1.948;2023-07-08T13:47:00;99886.34;;;21.29;100.00
43364;BME280;40636;52.424;-1.948;2023-07-08T13:49:38;99894.66;;;21.12;100.00
43364;BME280;40636;52.424;-1.948;2023-07-08T13:54:47;99916.47;;;21.10;100.00
43364;BME280;40636;52.424;-1.948;2023-07-08T13:57:18;99918.94;;;21.12;100.00
43364;BME280;40636;52.424;-1.948;2023-07-08T13:59:50;99915.75;;;20.96;100.00
43364;BME280;40636;52.424;-1.948;2023-07-08T14:02:22;99889.94;;;20.82;100.00
43364;BME280;40636;52.424;-1.948;2023-07-08T14:04:51;99904.19;;;20.80;100.00
43364;BME280;40636;52.424;-1.948;2023-07-08T14:07:23;99892.34;;;20.74;100.00